Terminal Aerodrome Forecast
Issued by NWS Louisville, KY

Home | Current Version | Previous Version | Text Only | Print | Product List | Glossary On
Versions: 1 2 3 4 5 6 7 8 9 10 11 12 13 14 15 16 17 18
000
FTUS43 KLMK 282119 AAA
TAFBWG
TAF AMD
KBWG 282119Z 2821/2918 VRB04KT P6SM SCT022 BKN035
      TEMPO 2904/2908 BKN025
     FM290800 06005KT 5SM BR BKN022
      TEMPO 2910/2914 3SM BR BKN012
     FM291600 08007KT P6SM SCT022 BKN200=

USA.gov is the U.S. government's official web portal to all federal, state and local government web resources and services.